Time;durP1;ratioP1;P1;durP2;ratioP2;P2;SDS_P1;SDS_P2;PMS_P1;PMS_P2;Temp;Humidity;BMP_temperature;BMP_pressure;BME280_temperature;BME280_humidity;BME280_pressure;Samples;Min_cycle;Max_cycle;Signal;HPM_P1;HPM_P2
2022/10/06 00:01:32;;;;;;;;;;;;;;;;;;4995742;28;19918;-90
2022/10/06 00:03:58;;;;;;;;;;;;;;;;;;4996793;28;20012;-89
2022/10/06 00:06:23;;;;;;;;;;;;;;;;;;4995260;28;20055;-91
2022/10/06 00:08:49;;;;;;;;;;;;;;;;;;4997060;28;19917;-89
2022/10/06 00:11:16;;;;;;;;;;;;;;;;;;4996599;28;19933;-89
2022/10/06 00:13:41;;;;;;;;;;;;;;;;;;4996674;28;20266;-89
2022/10/06 00:16:10;;;;;;;;;;;;;;;;;;4996651;28;19987;-87
2022/10/06 00:18:35;;;;;;;;;;;;;;;;;;4996487;28;19968;-88
2022/10/06 00:21:03;;;;;;;;;;;;;;;;;;5001696;28;19918;-91
2022/10/06 00:23:28;;;;;;;;;;;;;;;;;;4995326;28;19949;-92
2022/10/06 00:25:54;;;;;;;;;;;;;;;;;;4995346;28;19918;-89
2022/10/06 00:28:19;;;;;;;;;;;;;;;;;;4998712;28;19934;-91
2022/10/06 00:30:45;;;;;;;;;;;;;;;;;;4995410;28;19925;-91
2022/10/06 00:33:12;;;;;;;;;;;;;;;;;;4994781;28;19918;-89
2022/10/06 00:35:37;;;;;;;;;;;;;;;;;;4996449;28;19973;-91
2022/10/06 00:38:03;;;;;;;;;;;;;;;;;;4995438;28;19921;-91
2022/10/06 00:40:29;;;;;;;;;;;;;;;;;;4995261;28;19968;-91
2022/10/06 00:42:56;;;;;;;;;;;;;;;;;;4994922;28;20286;-88
2022/10/06 00:45:32;;;;;;;;;;;;;;;;;;4996162;28;19917;-91
2022/10/06 00:48:00;;;;;;;;;;;;;;;;;;4995413;28;19921;-91
2022/10/06 00:50:26;;;;;;;;;;;;;;;;;;4994520;28;19953;-91
2022/10/06 00:52:51;;;;;;;;;;;;;;;;;;5003296;28;19922;-89
2022/10/06 00:55:19;;;;;;;;;;;;;;;;;;5007158;28;20372;-88
2022/10/06 00:57:45;;;;;;;;;;;;;;;;;;5020311;28;19933;-90
2022/10/06 01:00:11;;;;;;;;;;;;;;;;;;5020549;28;19912;-88
2022/10/06 01:02:40;;;;;;;;;;;;;;;;;;4999854;28;20016;-87
2022/10/06 01:05:07;;;;;;;;;;;;;;;;;;4996373;28;20320;-88
2022/10/06 01:07:32;;;;;;;;;;;;;;;;;;4995937;28;19929;-88
2022/10/06 01:09:58;;;;;;;;;;;;;;;;;;4995906;28;19922;-88
2022/10/06 01:12:24;;;;;;;;;;;;;;;;;;4995508;28;20381;-87
2022/10/06 01:14:51;;;;;;;;;;;;;;;;;;4995588;28;19918;-88
2022/10/06 01:17:21;;;;;;;;;;;;;;;;;;4993906;28;20389;-89
2022/10/06 01:19:49;;;;;;;;;;;;;;;;;;4994099;28;20385;-88
2022/10/06 01:22:16;;;;;;;;;;;;;;;;;;4994081;28;19922;-91
2022/10/06 01:24:43;;;;;;;;;;;;;;;;;;4995283;28;19918;-90
2022/10/06 01:27:10;;;;;;;;;;;;;;;;;;4995324;28;20025;-89
2022/10/06 01:29:35;;;;;;;;;;;;;;;;;;4993864;28;20392;-91
2022/10/06 01:32:01;;;;;;;;;;;;;;;;;;4994598;28;19918;-90
2022/10/06 01:34:27;;;;;;;;;;;;;;;;;;4995146;28;19949;-91
2022/10/06 01:36:52;;;;;;;;;;;;;;;;;;4995514;28;20020;-90
2022/10/06 01:39:18;;;;;;;;;;;;;;;;;;4995255;28;19918;-90
2022/10/06 01:41:46;;;;;;;;;;;;;;;;;;4993835;28;19969;-90
2022/10/06 01:44:12;;;;;;;;;;;;;;;;;;4994205;28;20273;-90
2022/10/06 01:46:37;;;;;;;;;;;;;;;;;;4993921;28;19917;-89
2022/10/06 01:49:02;;;;;;;;;;;;;;;;;;4995400;28;19918;-88
2022/10/06 01:51:28;;;;;;;;;;;;;;;;;;4993944;28;19921;-87
2022/10/06 01:53:53;;;;;;;;;;;;;;;;;;4993305;28;19918;-88
2022/10/06 01:56:20;;;;;;;;;;;;;;;;;;4993260;28;19919;-88
2022/10/06 01:58:45;;;;;;;;;;;;;;;;;;4994640;28;19944;-89
2022/10/06 02:01:11;;;;;;;;;;;;;;;;;;4993151;28;20325;-87
2022/10/06 02:09:46;;;;;;;;;;;;;;;;;;4988071;28;19921;-90
2022/10/06 02:12:12;;;;;;;;;;;;;;;;;;4993283;28;19928;-88
2022/10/06 02:14:37;;;;;;;;;;;;;;;;;;4994406;28;19917;-88
2022/10/06 02:23:08;;;;;;;;;;;;;;;;;;4994388;28;19929;-87
2022/10/06 02:25:34;;;;;;;;;;;;;;;;;;4993956;28;19918;-88
2022/10/06 02:27:59;;;;;;;;;;;;;;;;;;4994211;28;20012;-87
2022/10/06 02:30:25;;;;;;;;;;;;;;;;;;4994219;28;20000;-88
2022/10/06 02:32:50;;;;;;;;;;;;;;;;;;4994198;28;19925;-88
2022/10/06 02:35:16;;;;;;;;;;;;;;;;;;4992749;28;19964;-88
2022/10/06 02:37:41;;;;;;;;;;;;;;;;;;4992527;28;19918;-87
2022/10/06 02:40:07;;;;;;;;;;;;;;;;;;4992730;28;20004;-89
2022/10/06 02:42:34;;;;;;;;;;;;;;;;;;4994044;28;19925;-88
2022/10/06 02:45:00;;;;;;;;;;;;;;;;;;4994208;28;19925;-88
2022/10/06 02:47:25;;;;;;;;;;;;;;;;;;4993942;28;19928;-88
2022/10/06 02:49:51;;;;;;;;;;;;;;;;;;4992389;28;20013;-88
2022/10/06 02:52:17;;;;;;;;;;;;;;;;;;4993876;28;19918;-86
2022/10/06 02:54:44;;;;;;;;;;;;;;;;;;4993862;28;19918;-88
2022/10/06 02:57:10;;;;;;;;;;;;;;;;;;4993790;28;20416;-88
2022/10/06 02:59:36;;;;;;;;;;;;;;;;;;4992473;28;20004;-88
2022/10/06 03:02:01;;;;;;;;;;;;;;;;;;4994845;28;20329;-88
2022/10/06 03:04:27;;;;;;;;;;;;;;;;;;4997871;28;20297;-87
2022/10/06 03:06:55;;;;;;;;;;;;;;;;;;4996490;28;19929;-89
2022/10/06 03:09:21;;;;;;;;;;;;;;;;;;4999022;28;20349;-87
2022/10/06 03:11:46;;;;;;;;;;;;;;;;;;4997296;28;19922;-86
2022/10/06 03:14:12;;;;;;;;;;;;;;;;;;4998087;28;19988;-87
2022/10/06 03:16:39;;;;;;;;;;;;;;;;;;4997797;28;19918;-89
2022/10/06 03:19:41;;;;;;;;;;;;;;;;;;4997812;28;19917;-87
2022/10/06 03:22:07;;;;;;;;;;;;;;;;;;4995690;28;19995;-88
2022/10/06 03:24:32;;;;;;;;;;;;;;;;;;4997800;28;19922;-90
2022/10/06 03:26:58;;;;;;;;;;;;;;;;;;4997738;28;19921;-90
2022/10/06 03:29:23;;;;;;;;;;;;;;;;;;4997346;28;19917;-90
2022/10/06 03:31:49;;;;;;;;;;;;;;;;;;4996868;28;19964;-89
2022/10/06 03:34:14;;;;;;;;;;;;;;;;;;4997298;28;19925;-90
2022/10/06 03:36:40;;;;;;;;;;;;;;;;;;4995744;28;20357;-89
2022/10/06 03:39:06;;;;;;;;;;;;;;;;;;4997294;28;20353;-87
2022/10/06 03:41:36;;;;;;;;;;;;;;;;;;4996306;28;19948;-91
2022/10/06 03:44:02;;;;;;;;;;;;;;;;;;4995969;28;20009;-91
2022/10/06 03:46:28;;;;;;;;;;;;;;;;;;4997443;28;19957;-89
2022/10/06 03:48:56;;;;;;;;;;;;;;;;;;4996889;28;19918;-91
2022/10/06 03:51:28;;;;;;;;;;;;;;;;;;4996568;28;20274;-89
2022/10/06 03:53:54;;;;;;;;;;;;;;;;;;4996723;28;19964;-90
2022/10/06 03:56:27;;;;;;;;;;;;;;;;;;4995937;28;19922;-90
2022/10/06 03:58:54;;;;;;;;;;;;;;;;;;4995402;28;20281;-89
2022/10/06 04:01:24;;;;;;;;;;;;;;;;;;4995677;28;20362;-91
2022/10/06 04:03:50;;;;;;;;;;;;;;;;;;4996773;28;19924;-91
2022/10/06 04:06:17;;;;;;;;;;;;;;;;;;4995216;28;19933;-90
2022/10/06 04:08:43;;;;;;;;;;;;;;;;;;4995427;28;19972;-89
2022/10/06 04:11:16;;;;;;;;;;;;;;;;;;4997466;28;19918;-88
2022/10/06 04:13:43;;;;;;;;;;;;;;;;;;5001679;28;19924;-90
2022/10/06 04:16:18;;;;;;;;;;;;;;;;;;4998605;28;20296;-91
2022/10/06 04:18:45;;;;;;;;;;;;;;;;;;4998023;28;19972;-90
2022/10/06 04:21:12;;;;;;;;;;;;;;;;;;4996836;28;19913;-90
2022/10/06 04:23:37;;;;;;;;;;;;;;;;;;4996441;28;19925;-87
2022/10/06 04:26:05;;;;;;;;;;;;;;;;;;4996630;28;20317;-92
2022/10/06 04:28:31;;;;;;;;;;;;;;;;;;4995204;28;19914;-90
2022/10/06 04:31:00;;;;;;;;;;;;;;;;;;4997047;28;19917;-91
2022/10/06 04:33:26;;;;;;;;;;;;;;;;;;4996386;28;19918;-90
2022/10/06 04:35:58;;;;;;;;;;;;;;;;;;4996433;28;19918;-90
2022/10/06 04:38:24;;;;;;;;;;;;;;;;;;4997239;28;19922;-89
2022/10/06 04:40:49;;;;;;;;;;;;;;;;;;4996391;28;20427;-91
2022/10/06 04:43:16;;;;;;;;;;;;;;;;;;4996084;28;20359;-90
2022/10/06 04:45:41;;;;;;;;;;;;;;;;;;4994848;28;19918;-89
2022/10/06 04:48:07;;;;;;;;;;;;;;;;;;4996169;28;19941;-92
2022/10/06 04:50:32;;;;;;;;;;;;;;;;;;4996780;28;19921;-89
2022/10/06 04:52:58;;;;;;;;;;;;;;;;;;5003843;28;19921;-91
2022/10/06 04:55:23;;;;;;;;;;;;;;;;;;5019734;28;19938;-88
2022/10/06 04:57:49;;;;;;;;;;;;;;;;;;5019141;28;19914;-88
2022/10/06 05:00:24;;;;;;;;;;;;;;;;;;4996322;28;19924;-87
2022/10/06 05:02:51;;;;;;;;;;;;;;;;;;4996287;28;19926;-89
2022/10/06 05:05:17;;;;;;;;;;;;;;;;;;4997869;28;19990;-88
2022/10/06 05:07:43;;;;;;;;;;;;;;;;;;5000468;28;19965;-90
2022/10/06 05:10:09;;;;;;;;;;;;;;;;;;4994910;28;19973;-88
2022/10/06 05:12:35;;;;;;;;;;;;;;;;;;4994631;28;19925;-89
2022/10/06 05:15:00;;;;;;;;;;;;;;;;;;4995670;28;20288;-90
2022/10/06 05:17:26;;;;;;;;;;;;;;;;;;4995850;28;20413;-91
2022/10/06 05:19:52;;;;;;;;;;;;;;;;;;4996063;28;19918;-90
2022/10/06 05:22:17;;;;;;;;;;;;;;;;;;4995552;28;20353;-88
2022/10/06 05:24:45;;;;;;;;;;;;;;;;;;4995254;28;19922;-87
2022/10/06 05:27:11;;;;;;;;;;;;;;;;;;4994435;28;19917;-88
2022/10/06 05:29:37;;;;;;;;;;;;;;;;;;4995140;28;19918;-88
2022/10/06 05:32:03;;;;;;;;;;;;;;;;;;4995132;28;19921;-87
2022/10/06 05:34:30;;;;;;;;;;;;;;;;;;4995212;28;19967;-86
2022/10/06 05:36:55;;;;;;;;;;;;;;;;;;4995123;28;20029;-87
2022/10/06 05:41:02;;;;;;;;;;;;;;;;;;5096407;27;2225959;-90
2022/10/06 05:43:27;;;;;;;;;;;;;;;;;;5173225;27;19923;-90
2022/10/06 05:45:54;;;;;;;;;;;;;;;;;;5154241;27;19915;-91
2022/10/06 05:48:19;;;;;;;;;;;;;;;;;;5168395;27;20274;-89
2022/10/06 05:50:44;;;;;;;;;;;;;;;;;;5154952;27;19937;-89
2022/10/06 05:53:10;;;;;;;;;;;;;;;;;;5148114;27;19908;-87
2022/10/06 05:55:36;;;;;;;;;;;;;;;;;;5148120;27;19938;-88
2022/10/06 05:58:01;;;;;;;;;;;;;;;;;;5145523;27;19903;-87
2022/10/06 06:00:27;;;;;;;;;;;;;;;;;;5153741;27;19916;-87
2022/10/06 06:02:52;;;;;;;;;;;;;;;;;;5152131;27;19968;-87
2022/10/06 06:05:18;;;;;;;;;;;;;;;;;;5151949;27;20000;-88
2022/10/06 06:07:43;;;;;;;;;;;;;;;;;;5132857;27;19919;-89
2022/10/06 06:10:09;;;;;;;;;;;;;;;;;;5133047;27;20388;-87
2022/10/06 06:12:34;;;;;;;;;;;;;;;;;;5132927;27;20255;-87
2022/10/06 06:17:44;;;;;;;;;;;;;;;;;;5151223;27;19922;-87
2022/10/06 06:20:09;;;;;;;;;;;;;;;;;;5132185;27;19916;-88
2022/10/06 06:22:35;;;;;;;;;;;;;;;;;;5151293;27;20005;-88
2022/10/06 06:25:00;;;;;;;;;;;;;;;;;;5151317;27;19919;-89
2022/10/06 06:27:26;;;;;;;;;;;;;;;;;;5132693;27;19923;-89
2022/10/06 06:29:51;;;;;;;;;;;;;;;;;;5150957;27;19997;-89
2022/10/06 06:32:17;;;;;;;;;;;;;;;;;;5151140;27;19915;-89
2022/10/06 06:34:42;;;;;;;;;;;;;;;;;;5132587;27;19915;-89
2022/10/06 06:37:09;;;;;;;;;;;;;;;;;;5132280;27;19916;-88
2022/10/06 06:39:35;;;;;;;;;;;;;;;;;;5150578;27;19923;-88
2022/10/06 06:42:01;;;;;;;;;;;;;;;;;;5146267;27;20392;-90
2022/10/06 06:44:26;;;;;;;;;;;;;;;;;;5150977;27;19955;-90
2022/10/06 06:46:52;;;;;;;;;;;;;;;;;;5151509;27;19914;-89
2022/10/06 06:49:19;;;;;;;;;;;;;;;;;;5169778;27;20369;-90
2022/10/06 06:51:48;;;;;;;;;;;;;;;;;;5145396;27;19958;-89
2022/10/06 06:54:14;;;;;;;;;;;;;;;;;;5116463;27;19918;-91
2022/10/06 06:56:41;;;;;;;;;;;;;;;;;;5135760;27;19916;-89
2022/10/06 06:59:10;;;;;;;;;;;;;;;;;;5136627;27;19915;-91
2022/10/06 07:01:37;;;;;;;;;;;;;;;;;;5136615;27;19915;-89
2022/10/06 07:04:02;;;;;;;;;;;;;;;;;;5136455;27;19916;-89
2022/10/06 07:06:29;;;;;;;;;;;;;;;;;;5117645;27;19927;-89
2022/10/06 07:08:55;;;;;;;;;;;;;;;;;;5136624;27;20285;-90
2022/10/06 07:11:28;;;;;;;;;;;;;;;;;;5136223;27;19980;-89
2022/10/06 07:13:56;;;;;;;;;;;;;;;;;;5117889;27;20170;-90
2022/10/06 07:27:22;;;;;;;;;;;;;;;;;;5141051;27;19969;-88
2022/10/06 07:29:52;;;;;;;;;;;;;;;;;;5118447;27;19963;-87
2022/10/06 07:32:20;;;;;;;;;;;;;;;;;;5136751;27;19919;-88
2022/10/06 07:34:45;;;;;;;;;;;;;;;;;;5117563;27;20279;-87
2022/10/06 07:37:11;;;;;;;;;;;;;;;;;;5487765;22;20080;-87
2022/10/06 07:39:36;;;;;;;;;;;;;;;;;;5056582;28;19967;-88
2022/10/06 07:42:05;;;;;;;;;;;;;;;;;;5074913;28;19923;-88
2022/10/06 07:44:31;;;;;;;;;;;;;;;;;;5075137;28;19926;-88
2022/10/06 07:46:56;;;;;;;;;;;;;;;;;;5059164;28;19923;-89
2022/10/06 07:49:22;;;;;;;;;;;;;;;;;;5074759;28;19924;-88
2022/10/06 07:51:47;;;;;;;;;;;;;;;;;;5075037;28;19978;-89
2022/10/06 07:54:13;;;;;;;;;;;;;;;;;;5056502;28;19917;-88
2022/10/06 07:56:39;;;;;;;;;;;;;;;;;;5056703;28;20433;-88
2022/10/06 07:59:04;;;;;;;;;;;;;;;;;;5056550;28;20279;-89
2022/10/06 08:01:30;;;;;;;;;;;;;;;;;;5074921;28;20003;-89
2022/10/06 08:03:55;;;;;;;;;;;;;;;;;;5073487;28;19970;-88
2022/10/06 08:06:22;;;;;;;;;;;;;;;;;;5074105;28;19950;-89
2022/10/06 08:08:48;;;;;;;;;;;;;;;;;;5056028;28;20334;-88
2022/10/06 08:11:14;;;;;;;;;;;;;;;;;;5056966;28;19962;-88
2022/10/06 08:13:41;;;;;;;;;;;;;;;;;;5075974;28;19916;-87
2022/10/06 08:16:11;;;;;;;;;;;;;;;;;;5060079;28;20416;-88
2022/10/06 08:18:37;;;;;;;;;;;;;;;;;;5057041;28;20501;-89
2022/10/06 08:21:10;;;;;;;;;;;;;;;;;;5075527;28;19951;-87
2022/10/06 08:23:39;;;;;;;;;;;;;;;;;;5057457;28;19917;-87
2022/10/06 08:26:05;;;;;;;;;;;;;;;;;;5057817;28;19916;-87
2022/10/06 08:28:31;;;;;;;;;;;;;;;;;;5077125;28;19939;-88
2022/10/06 08:30:57;;;;;;;;;;;;;;;;;;5060565;28;19923;-88
2022/10/06 08:33:22;;;;;;;;;;;;;;;;;;5041995;28;19976;-88
2022/10/06 08:35:47;;;;;;;;;;;;;;;;;;5074730;28;19927;-89
2022/10/06 08:38:13;;;;;;;;;;;;;;;;;;5073801;28;19928;-90
2022/10/06 08:40:40;;;;;;;;;;;;;;;;;;5057781;28;20272;-90
2022/10/06 08:43:12;;;;;;;;;;;;;;;;;;5075478;28;19912;-89
2022/10/06 08:45:42;;;;;;;;;;;;;;;;;;5080181;28;19977;-91
2022/10/06 08:48:13;;;;;;;;;;;;;;;;;;5062220;28;19924;-87
2022/10/06 08:50:57;;;;;;;;;;;;;;;;;;5077588;28;19969;-89
2022/10/06 08:53:22;;;;;;;;;;;;;;;;;;5059657;28;19916;-88
2022/10/06 08:55:54;;;;;;;;;;;;;;;;;;5060309;28;19912;-90
2022/10/06 08:58:39;;;;;;;;;;;;;;;;;;5060952;28;19916;-88
2022/10/06 09:01:17;;;;;;;;;;;;;;;;;;5078886;28;19917;-89
2022/10/06 09:03:47;;;;;;;;;;;;;;;;;;5076666;28;19923;-90
2022/10/06 09:06:22;;;;;;;;;;;;;;;;;;5056149;28;19916;-89
2022/10/06 09:08:57;;;;;;;;;;;;;;;;;;5077114;28;19913;-89
2022/10/06 09:11:46;;;;;;;;;;;;;;;;;;5057703;28;20065;-89
2022/10/06 09:14:16;;;;;;;;;;;;;;;;;;5073808;28;19928;-89
2022/10/06 09:16:43;;;;;;;;;;;;;;;;;;5073271;28;20337;-89
2022/10/06 09:19:14;;;;;;;;;;;;;;;;;;5054846;28;19935;-90
2022/10/06 09:21:40;;;;;;;;;;;;;;;;;;5073095;28;19948;-89
2022/10/06 09:24:09;;;;;;;;;;;;;;;;;;5074250;28;19912;-89
2022/10/06 09:26:35;;;;;;;;;;;;;;;;;;5074359;28;19917;-88
2022/10/06 09:29:00;;;;;;;;;;;;;;;;;;5073984;28;20342;-88
2022/10/06 09:31:27;;;;;;;;;;;;;;;;;;5054798;28;20090;-88
2022/10/06 09:33:54;;;;;;;;;;;;;;;;;;5072906;28;19920;-88
2022/10/06 09:36:20;;;;;;;;;;;;;;;;;;5071967;28;19967;-88
2022/10/06 09:38:52;;;;;;;;;;;;;;;;;;5066434;28;19939;-89
2022/10/06 09:41:38;;;;;;;;;;;;;;;;;;5087071;28;19924;-90
2022/10/06 09:44:05;;;;;;;;;;;;;;;;;;5085913;28;19943;-88
2022/10/06 09:46:40;;;;;;;;;;;;;;;;;;5080846;28;19987;-89
2022/10/06 09:49:06;;;;;;;;;;;;;;;;;;5059465;28;20260;-89
2022/10/06 09:51:34;;;;;;;;;;;;;;;;;;5074059;28;19939;-89
2022/10/06 09:54:09;;;;;;;;;;;;;;;;;;5075157;28;19921;-89
2022/10/06 09:56:39;;;;;;;;;;;;;;;;;;5072901;28;19920;-89
2022/10/06 09:59:06;;;;;;;;;;;;;;;;;;5054760;28;19991;-88
2022/10/06 10:01:31;;;;;;;;;;;;;;;;;;5050944;28;19920;-89
2022/10/06 10:04:03;;;;;;;;;;;;;;;;;;5052623;28;19917;-88
2022/10/06 10:06:30;;;;;;;;;;;;;;;;;;5052503;28;19917;-89
2022/10/06 10:09:22;;;;;;;;;;;;;;;;;;5051262;28;19971;-88
2022/10/06 10:14:51;;;;;;;;;;;;;;;;;;5052433;28;19986;-88
2022/10/06 10:17:21;;;;;;;;;;;;;;;;;;5055557;28;20387;-89
2022/10/06 10:19:54;;;;;;;;;;;;;;;;;;5072520;28;19920;-89
2022/10/06 10:22:24;;;;;;;;;;;;;;;;;;5072470;28;20367;-88
2022/10/06 10:25:08;;;;;;;;;;;;;;;;;;5054322;28;20074;-89
2022/10/06 10:27:44;;;;;;;;;;;;;;;;;;5057688;28;19923;-88
2022/10/06 10:30:11;;;;;;;;;;;;;;;;;;5058239;28;20381;-90
2022/10/06 10:32:41;;;;;;;;;;;;;;;;;;5084591;28;20007;-90
2022/10/06 10:35:28;;;;;;;;;;;;;;;;;;5085416;28;19971;-92
2022/10/06 10:38:00;;;;;;;;;;;;;;;;;;5084037;28;19989;-92
2022/10/06 10:40:33;;;;;;;;;;;;;;;;;;5083383;28;19975;-92
2022/10/06 10:43:11;;;;;;;;;;;;;;;;;;5067471;28;19970;-91
2022/10/06 10:45:44;;;;;;;;;;;;;;;;;;5083701;28;20347;-91
2022/10/06 10:48:20;;;;;;;;;;;;;;;;;;5069985;28;19916;-90
2022/10/06 10:50:51;;;;;;;;;;;;;;;;;;5086099;28;20011;-90
2022/10/06 10:53:39;;;;;;;;;;;;;;;;;;5088956;28;19916;-92
2022/10/06 10:56:08;;;;;;;;;;;;;;;;;;5051843;28;19952;-92
2022/10/06 10:58:38;;;;;;;;;;;;;;;;;;5054923;28;19929;-91
2022/10/06 11:01:19;;;;;;;;;;;;;;;;;;5088657;28;19920;-92
2022/10/06 11:03:55;;;;;;;;;;;;;;;;;;5086708;28;19920;-92
2022/10/06 11:06:53;;;;;;;;;;;;;;;;;;5052240;28;20287;-90
2022/10/06 11:09:27;;;;;;;;;;;;;;;;;;5028354;28;20390;-91
2022/10/06 11:12:08;;;;;;;;;;;;;;;;;;5087378;28;20359;-92
2022/10/06 11:14:44;;;;;;;;;;;;;;;;;;5087324;28;19926;-91
2022/10/06 11:17:18;;;;;;;;;;;;;;;;;;5088068;28;20025;-90
2022/10/06 11:20:14;;;;;;;;;;;;;;;;;;5087997;28;19916;-91
2022/10/06 11:22:56;;;;;;;;;;;;;;;;;;5070780;28;19916;-91
2022/10/06 11:25:31;;;;;;;;;;;;;;;;;;5061013;28;20403;-90
2022/10/06 11:28:21;;;;;;;;;;;;;;;;;;5081124;28;19963;-91
2022/10/06 11:30:56;;;;;;;;;;;;;;;;;;5082893;28;20011;-90
2022/10/06 11:33:31;;;;;;;;;;;;;;;;;;5076592;28;19939;-90
2022/10/06 11:35:57;;;;;;;;;;;;;;;;;;5058566;28;19927;-92
2022/10/06 11:38:30;;;;;;;;;;;;;;;;;;5075992;28;19946;-91
2022/10/06 11:40:56;;;;;;;;;;;;;;;;;;5057958;28;19927;-90
2022/10/06 11:43:30;;;;;;;;;;;;;;;;;;5058259;28;19916;-90
2022/10/06 11:46:05;;;;;;;;;;;;;;;;;;5075993;28;20436;-91
2022/10/06 11:48:31;;;;;;;;;;;;;;;;;;5075490;28;19912;-90
2022/10/06 11:51:16;;;;;;;;;;;;;;;;;;5056709;28;19923;-89
2022/10/06 11:53:41;;;;;;;;;;;;;;;;;;5057299;28;19920;-90
2022/10/06 11:56:16;;;;;;;;;;;;;;;;;;5075632;28;19981;-92
2022/10/06 11:59:02;;;;;;;;;;;;;;;;;;5076252;28;19978;-90
2022/10/06 12:01:30;;;;;;;;;;;;;;;;;;5067539;28;19956;-89
2022/10/06 12:04:04;;;;;;;;;;;;;;;;;;5056450;28;20367;-92
2022/10/06 12:06:42;;;;;;;;;;;;;;;;;;5056376;28;19917;-92
2022/10/06 12:09:32;;;;;;;;;;;;;;;;;;5056925;28;20011;-92
2022/10/06 12:12:13;;;;;;;;;;;;;;;;;;5073849;28;19916;-90
2022/10/06 12:14:42;;;;;;;;;;;;;;;;;;5057547;28;20360;-89
2022/10/06 12:17:15;;;;;;;;;;;;;;;;;;5056480;28;19919;-92
2022/10/06 12:19:55;;;;;;;;;;;;;;;;;;5056905;28;20436;-92
2022/10/06 12:22:24;;;;;;;;;;;;;;;;;;5057404;28;19913;-91
2022/10/06 12:24:52;;;;;;;;;;;;;;;;;;5075624;28;19970;-92
2022/10/06 12:30:17;;;;;;;;;;;;;;;;;;5106367;22;19992;-91
2022/10/06 12:32:47;;;;;;;;;;;;;;;;;;5096866;28;20010;-92
2022/10/06 12:35:31;;;;;;;;;;;;;;;;;;5099952;28;19961;-91
2022/10/06 12:38:03;;;;;;;;;;;;;;;;;;5096880;28;19963;-92
2022/10/06 12:40:47;;;;;;;;;;;;;;;;;;5093459;28;20398;-91
2022/10/06 12:43:23;;;;;;;;;;;;;;;;;;5095612;28;19916;-90
2022/10/06 12:45:55;;;;;;;;;;;;;;;;;;5095375;28;20391;-92
2022/10/06 12:48:23;;;;;;;;;;;;;;;;;;5095539;28;19924;-92
2022/10/06 12:50:53;;;;;;;;;;;;;;;;;;5076977;28;20276;-94
2022/10/06 12:53:23;;;;;;;;;;;;;;;;;;5078168;28;19923;-92
2022/10/06 12:55:54;;;;;;;;;;;;;;;;;;5080018;28;20470;-92
2022/10/06 13:01:27;;;;;;;;;;;;;;;;;;5096245;22;19946;-91
2022/10/06 13:03:54;;;;;;;;;;;;;;;;;;5081061;28;19981;-91
2022/10/06 13:09:14;;;;;;;;;;;;;;;;;;5081596;28;19920;-92
2022/10/06 13:11:40;;;;;;;;;;;;;;;;;;5079001;28;20007;-92
2022/10/06 13:14:11;;;;;;;;;;;;;;;;;;5078499;28;20385;-91
2022/10/06 13:16:40;;;;;;;;;;;;;;;;;;5078804;28;19916;-92
2022/10/06 13:19:13;;;;;;;;;;;;;;;;;;5079297;28;19965;-93
2022/10/06 13:21:39;;;;;;;;;;;;;;;;;;5080247;28;19920;-92
2022/10/06 13:33:16;;;;;;;;;;;;;;;;;;5115854;22;20435;-92
2022/10/06 14:00:59;;;;;;;;;;;;;;;;;;5111479;22;19992;-91
2022/10/06 14:03:43;;;;;;;;;;;;;;;;;;5042071;28;19921;-92
2022/10/06 14:06:37;;;;;;;;;;;;;;;;;;5050424;28;19936;-93
2022/10/06 14:12:12;;;;;;;;;;;;;;;;;;5113401;22;19924;-91
2022/10/06 14:14:38;;;;;;;;;;;;;;;;;;5088966;28;19916;-91
2022/10/06 14:32:32;;;;;;;;;;;;;;;;;;4967138;28;20039;-91
2022/10/06 14:37:57;;;;;;;;;;;;;;;;;;;;;
2022/10/06 14:43:26;;;;;;;;;;;;;;;;;;5029136;23;19933;-91
2022/10/06 14:46:16;;;;;;;;;;;;;;;;;;5025308;28;20304;-92
2022/10/06 14:51:45;;;;;;;;;;;;;;;;;;5107851;23;20485;-93
2022/10/06 14:54:11;;;;;;;;;;;;;;;;;;5013972;23;19972;-91
2022/10/06 14:56:52;;;;;;;;;;;;;;;;;;5009014;28;19921;-92
2022/10/06 14:59:18;;;;;;;;;;;;;;;;;;5044811;23;19964;-90
2022/10/06 15:01:44;;;;;;;;;;;;;;;;;;4999434;28;19942;-91
2022/10/06 15:04:11;;;;;;;;;;;;;;;;;;4991037;28;19922;-92
2022/10/06 15:14:38;;;;;;;;;;;;;;;;;;5039234;23;19926;-90
2022/10/06 15:19:44;;;;;;;;;;;;;;;;;;4997279;22;19926;-90
2022/10/06 15:22:55;;;;;;;;;;;;;;;;;;4967512;29;19923;-91
2022/10/06 15:34:00;;;;;;;;;;;;;;;;;;5032512;23;19929;-92
2022/10/06 15:36:27;;;;;;;;;;;;;;;;;;5040785;23;19926;-90
2022/10/06 15:39:03;;;;;;;;;;;;;;;;;;5008958;28;19973;-91
2022/10/06 15:44:16;;;;;;;;;;;;;;;;;;5452535;22;19952;-92
2022/10/06 15:46:53;;;;;;;;;;;;;;;;;;5025150;28;19926;-91
2022/10/06 15:49:20;;;;;;;;;;;;;;;;;;5014603;23;19988;-90
2022/10/06 15:57:24;;;;;;;;;;;;;;;;;;5071589;23;19973;-89
2022/10/06 15:59:50;;;;;;;;;;;;;;;;;;5088315;23;19924;-92
2022/10/06 16:02:17;;;;;;;;;;;;;;;;;;5020877;28;19926;-91
2022/10/06 16:07:08;;;;;;;;;;;;;;;;;;5017456;28;19960;-91
2022/10/06 16:09:36;;;;;;;;;;;;;;;;;;5000467;28;19918;-93
2022/10/06 16:12:02;;;;;;;;;;;;;;;;;;4999708;28;19917;-90
2022/10/06 16:14:28;;;;;;;;;;;;;;;;;;4998718;28;20349;-93
2022/10/06 16:16:56;;;;;;;;;;;;;;;;;;4997624;28;19968;-91
2022/10/06 16:19:21;;;;;;;;;;;;;;;;;;5015113;28;19953;-93
2022/10/06 16:21:48;;;;;;;;;;;;;;;;;;5015107;28;20444;-92
2022/10/06 16:24:13;;;;;;;;;;;;;;;;;;4997113;28;19917;-92
2022/10/06 16:26:39;;;;;;;;;;;;;;;;;;4998163;28;19917;-92
2022/10/06 16:29:04;;;;;;;;;;;;;;;;;;4997480;28;19917;-92
2022/10/06 16:31:30;;;;;;;;;;;;;;;;;;5030229;28;19917;-91
2022/10/06 16:33:55;;;;;;;;;;;;;;;;;;5015393;28;20375;-91
2022/10/06 16:36:21;;;;;;;;;;;;;;;;;;5015328;28;19921;-92
2022/10/06 16:38:50;;;;;;;;;;;;;;;;;;5014847;28;19921;-92
2022/10/06 16:41:16;;;;;;;;;;;;;;;;;;5014622;28;20376;-94
2022/10/06 16:43:42;;;;;;;;;;;;;;;;;;5014634;28;19926;-92
2022/10/06 16:46:08;;;;;;;;;;;;;;;;;;5014709;28;19940;-92
2022/10/06 16:48:35;;;;;;;;;;;;;;;;;;5014602;28;20016;-92
2022/10/06 16:51:05;;;;;;;;;;;;;;;;;;5014948;28;20283;-92
2022/10/06 16:53:34;;;;;;;;;;;;;;;;;;5015644;28;20364;-89
2022/10/06 16:55:59;;;;;;;;;;;;;;;;;;5020298;28;19921;-90
2022/10/06 16:58:25;;;;;;;;;;;;;;;;;;5034053;28;20069;-93
2022/10/06 17:00:57;;;;;;;;;;;;;;;;;;4999459;28;19921;-92
2022/10/06 17:03:22;;;;;;;;;;;;;;;;;;5015888;28;20001;-90
2022/10/06 17:05:47;;;;;;;;;;;;;;;;;;5000662;28;20381;-89
2022/10/06 17:08:13;;;;;;;;;;;;;;;;;;5018325;28;20360;-90
2022/10/06 17:10:38;;;;;;;;;;;;;;;;;;5014280;28;20373;-91
2022/10/06 17:13:04;;;;;;;;;;;;;;;;;;5014115;28;19924;-90
2022/10/06 17:15:29;;;;;;;;;;;;;;;;;;5016956;28;19924;-91
2022/10/06 17:17:54;;;;;;;;;;;;;;;;;;5002155;28;20008;-91
2022/10/06 17:20:20;;;;;;;;;;;;;;;;;;5019439;28;19917;-90
2022/10/06 17:22:45;;;;;;;;;;;;;;;;;;5035886;28;19918;-90
2022/10/06 17:25:12;;;;;;;;;;;;;;;;;;5016853;28;19964;-90
2022/10/06 17:27:38;;;;;;;;;;;;;;;;;;5022726;28;20389;-90
2022/10/06 17:30:03;;;;;;;;;;;;;;;;;;5034672;28;19933;-92
2022/10/06 17:32:29;;;;;;;;;;;;;;;;;;5034585;28;20323;-92
2022/10/06 17:34:54;;;;;;;;;;;;;;;;;;5037080;28;19940;-92
2022/10/06 17:37:20;;;;;;;;;;;;;;;;;;5007400;28;19918;-92
2022/10/06 17:39:46;;;;;;;;;;;;;;;;;;4998150;28;20273;-90
2022/10/06 17:42:12;;;;;;;;;;;;;;;;;;4979791;28;20004;-92
2022/10/06 17:44:38;;;;;;;;;;;;;;;;;;4996460;28;19925;-90
2022/10/06 17:47:03;;;;;;;;;;;;;;;;;;4996476;28;19918;-91
2022/10/06 17:49:33;;;;;;;;;;;;;;;;;;4979314;28;19961;-91
2022/10/06 17:51:58;;;;;;;;;;;;;;;;;;4997482;28;19905;-88
2022/10/06 17:54:25;;;;;;;;;;;;;;;;;;5024447;28;19902;-88
2022/10/06 17:56:52;;;;;;;;;;;;;;;;;;5011644;28;19932;-89
2022/10/06 17:59:20;;;;;;;;;;;;;;;;;;5009606;28;20506;-91
2022/10/06 18:01:45;;;;;;;;;;;;;;;;;;5018270;28;20439;-90
2022/10/06 18:04:14;;;;;;;;;;;;;;;;;;5036607;28;19921;-91
2022/10/06 18:06:40;;;;;;;;;;;;;;;;;;5037107;28;19913;-89
2022/10/06 18:09:06;;;;;;;;;;;;;;;;;;5035249;28;20430;-90
2022/10/06 18:11:34;;;;;;;;;;;;;;;;;;5037003;28;19963;-90
2022/10/06 18:14:02;;;;;;;;;;;;;;;;;;5019460;28;20463;-91
2022/10/06 18:18:55;;;;;;;;;;;;;;;;;;5043868;22;20001;-90
2022/10/06 18:21:37;;;;;;;;;;;;;;;;;;5015257;22;19930;-89
2022/10/06 18:26:46;;;;;;;;;;;;;;;;;;4964064;22;20318;-91
2022/10/06 18:29:13;;;;;;;;;;;;;;;;;;4956081;28;19965;-88
2022/10/06 18:31:38;;;;;;;;;;;;;;;;;;4957458;29;20445;-89
2022/10/06 18:34:04;;;;;;;;;;;;;;;;;;4956559;28;19946;-89
2022/10/06 18:36:30;;;;;;;;;;;;;;;;;;4939479;29;19973;-90
2022/10/06 18:38:56;;;;;;;;;;;;;;;;;;4941535;29;19919;-90
2022/10/06 18:41:23;;;;;;;;;;;;;;;;;;4958904;28;19925;-89
2022/10/06 18:43:49;;;;;;;;;;;;;;;;;;4961658;29;19918;-90
2022/10/06 18:55:43;;;;;;;;;;;;;;;;;;;;;
2022/10/06 18:58:17;;;;;;;;;;;;;;;;;;4949120;29;20047;-91
2022/10/06 19:00:46;;;;;;;;;;;;;;;;;;4949133;29;20016;-90
2022/10/06 19:03:12;;;;;;;;;;;;;;;;;;4949709;29;19918;-90
2022/10/06 19:05:37;;;;;;;;;;;;;;;;;;4948380;29;19937;-90
2022/10/06 19:08:04;;;;;;;;;;;;;;;;;;4976033;23;19925;-90
2022/10/06 19:10:32;;;;;;;;;;;;;;;;;;5042086;28;19924;-89
2022/10/06 19:12:58;;;;;;;;;;;;;;;;;;5045436;28;19932;-91
2022/10/06 19:15:24;;;;;;;;;;;;;;;;;;5038534;28;19917;-91
2022/10/06 19:17:49;;;;;;;;;;;;;;;;;;5044179;28;19917;-90
2022/10/06 19:20:17;;;;;;;;;;;;;;;;;;5026128;28;19924;-89
2022/10/06 19:22:42;;;;;;;;;;;;;;;;;;5024179;28;20006;-90